Time;durP1;ratioP1;P1;durP2;ratioP2;P2;SDS_P1;SDS_P2;PMS_P1;PMS_P2;Temp;Humidity;BMP_temperature;BMP_pressure;BME280_temperature;BME280_humidity;BME280_pressure;Samples;Min_cycle;Max_cycle;Signal;HPM_P1;HPM_P2
2023/05/19 04:01:42;;;;;;;0.60;0.20;;;10.80;1.00;;;;;;5481119;23;20595;-69
2023/05/19 04:04:10;;;;;;;0.60;0.20;;;10.80;1.00;;;;;;4963118;28;20453;-70
2023/05/19 04:06:38;;;;;;;0.60;0.10;;;10.80;1.00;;;;;;4961496;28;20814;-69
2023/05/19 04:09:12;;;;;;;0.60;0.10;;;10.70;1.00;;;;;;4965079;28;20502;-70
2023/05/19 04:11:40;;;;;;;0.60;0.20;;;10.70;1.00;;;;;;4969367;28;20543;-70
2023/05/19 04:14:08;;;;;;;0.60;0.10;;;10.70;1.00;;;;;;4978436;28;20443;-71
2023/05/19 04:16:36;;;;;;;5.40;3.80;;;10.70;1.00;;;;;;4975738;28;20449;-69
2023/05/19 04:19:05;;;;;;;0.60;0.30;;;10.70;1.00;;;;;;4974437;28;20957;-69
2023/05/19 04:21:33;;;;;;;0.60;0.10;;;;;;;;;;4983458;23;20518;-73
2023/05/19 04:24:01;;;;;;;0.60;0.20;;;10.60;1.00;;;;;;4953986;29;20453;-73
2023/05/19 04:26:33;;;;;;;0.70;0.30;;;10.60;1.00;;;;;;4962164;28;20538;-72
2023/05/19 04:29:03;;;;;;;0.60;0.10;;;10.70;1.00;;;;;;4971424;28;20576;-72
2023/05/19 04:31:33;;;;;;;0.60;0.10;;;10.70;1.00;;;;;;4958510;28;20479;-72
2023/05/19 04:34:01;;;;;;;0.60;0.10;;;10.60;1.00;;;;;;4948754;29;20479;-73
2023/05/19 04:36:32;;;;;;;0.60;0.10;;;10.60;1.00;;;;;;4947482;29;20460;-72
2023/05/19 04:39:06;;;;;;;0.60;0.20;;;;;;;;;;4954109;28;20439;-73
2023/05/19 04:41:34;;;;;;;0.60;0.10;;;10.70;1.00;;;;;;4954378;28;20467;-73
2023/05/19 04:44:02;;;;;;;0.60;0.10;;;10.70;1.00;;;;;;4954072;29;20509;-72
2023/05/19 04:46:29;;;;;;;0.60;0.30;;;10.70;1.00;;;;;;4954189;29;20591;-72
2023/05/19 04:49:00;;;;;;;0.60;0.10;;;10.70;1.00;;;;;;4953894;29;20479;-72
2023/05/19 04:51:30;;;;;;;0.60;0.30;;;;;;;;;;4954388;28;20476;-73
2023/05/19 04:54:00;;;;;;;0.60;0.20;;;10.70;1.00;;;;;;4954029;28;20459;-73
2023/05/19 04:56:28;;;;;;;0.60;0.10;;;10.70;1.00;;;;;;4954304;29;20455;-73
2023/05/19 04:58:57;;;;;;;0.60;0.10;;;;;;;;;;4953277;29;20480;-72
2023/05/19 05:01:25;;;;;;;0.60;0.43;;;;;;;;;;4958313;28;20505;-72
2023/05/19 05:03:54;;;;;;;0.80;0.20;;;;;;;;;;4965010;28;20958;-72
2023/05/19 05:06:22;;;;;;;0.60;0.20;;;10.60;1.00;;;;;;4973816;28;20450;-72
2023/05/19 05:08:51;;;;;;;0.60;0.10;;;10.70;1.00;;;;;;4964641;28;20467;-72
2023/05/19 05:11:21;;;;;;;0.60;0.10;;;10.70;1.00;;;;;;4954077;28;20546;-73
2023/05/19 05:13:49;;;;;;;0.60;0.20;;;10.70;1.00;;;;;;4953434;29;20446;-73
2023/05/19 05:16:17;;;;;;;0.60;0.20;;;10.70;1.00;;;;;;4954807;28;20607;-73
2023/05/19 05:18:46;;;;;;;0.60;0.10;;;10.70;1.00;;;;;;4957507;29;20947;-73
2023/05/19 05:21:15;;;;;;;0.60;0.10;;;10.70;1.00;;;;;;4957509;28;20478;-73
2023/05/19 05:23:43;;;;;;;0.60;0.17;;;10.70;1.00;;;;;;4957248;29;20549;-73
2023/05/19 05:26:20;;;;;;;0.60;0.10;;;10.70;1.00;;;;;;4957705;28;20490;-73
2023/05/19 05:28:48;;;;;;;1.10;0.70;;;;;;;;;;4957307;28;20526;-73
2023/05/19 05:31:16;;;;;;;0.60;0.10;;;10.80;1.00;;;;;;4957405;28;20474;-73
2023/05/19 05:33:44;;;;;;;0.97;0.30;;;10.80;1.00;;;;;;4957204;29;20551;-74
2023/05/19 05:36:13;;;;;;;0.60;0.20;;;10.90;1.00;;;;;;4957623;29;20556;-73
2023/05/19 05:38:41;;;;;;;0.60;0.10;;;10.90;1.00;;;;;;4957487;29;20448;-72
2023/05/19 05:41:09;;;;;;;0.60;0.10;;;11.00;1.00;;;;;;4956622;28;20994;-73
2023/05/19 05:43:38;;;;;;;0.60;0.10;;;11.00;1.00;;;;;;4957438;29;20572;-74
2023/05/19 05:46:06;;;;;;;0.60;0.20;;;;;;;;;;4957882;28;20959;-74
2023/05/19 05:48:35;;;;;;;0.67;0.20;;;11.10;1.00;;;;;;4965223;28;20480;-73
2023/05/19 05:51:04;;;;;;;1.33;0.80;;;11.10;1.00;;;;;;4957129;28;20472;-72
2023/05/19 05:53:35;;;;;;;0.60;0.10;;;11.10;1.00;;;;;;4956363;29;20455;-73
2023/05/19 05:56:04;;;;;;;0.60;0.10;;;11.20;1.00;;;;;;4957100;28;20442;-72
2023/05/19 05:58:33;;;;;;;0.60;0.20;;;11.30;1.00;;;;;;4957328;28;20551;-72
2023/05/19 06:01:09;;;;;;;0.77;0.30;;;11.40;1.00;;;;;;4957075;28;20483;-71
2023/05/19 06:03:38;;;;;;;0.60;0.20;;;11.40;1.00;;;;;;4956764;28;20531;-73
2023/05/19 06:06:07;;;;;;;0.60;0.10;;;;;;;;;;4956564;28;20533;-73
2023/05/19 06:08:35;;;;;;;0.60;0.10;;;;;;;;;;4956310;28;20887;-73
2023/05/19 06:11:07;;;;;;;0.60;0.10;;;11.50;1.00;;;;;;4947147;28;20474;-73
2023/05/19 06:13:35;;;;;;;0.60;0.10;;;11.70;1.00;;;;;;4939034;29;20452;-72
2023/05/19 06:16:05;;;;;;;0.80;0.70;;;11.70;1.00;;;;;;4956885;29;20522;-72
2023/05/19 06:18:33;;;;;;;0.60;0.10;;;11.80;1.00;;;;;;4956536;29;20455;-73
2023/05/19 06:21:11;;;;;;;0.60;0.10;;;11.80;1.00;;;;;;4955751;28;20503;-73
2023/05/19 06:23:39;;;;;;;1.17;0.67;;;11.80;1.00;;;;;;4956455;28;20547;-73
2023/05/19 06:26:07;;;;;;;0.60;0.30;;;11.80;1.00;;;;;;4956931;29;20923;-73
2023/05/19 06:28:35;;;;;;;0.60;0.10;;;11.90;1.00;;;;;;4955741;28;20919;-72
2023/05/19 06:31:04;;;;;;;0.60;0.20;;;12.00;1.00;;;;;;4956662;29;20558;-73
2023/05/19 06:33:35;;;;;;;0.60;0.10;;;12.10;1.00;;;;;;4956135;29;20455;-72
2023/05/19 06:36:03;;;;;;;0.60;0.10;;;12.20;1.00;;;;;;4957349;28;20971;-72
2023/05/19 06:38:31;;;;;;;0.60;0.30;;;12.30;1.00;;;;;;4957093;28;20970;-73
2023/05/19 06:40:59;;;;;;;6.23;0.97;;;12.30;1.00;;;;;;4956701;28;20449;-73
2023/05/19 06:43:27;;;;;;;0.90;0.47;;;12.30;1.00;;;;;;4956008;28;20452;-73
2023/05/19 06:45:55;;;;;;;29.87;1.23;;;12.30;1.00;;;;;;4955990;28;20546;-73
2023/05/19 06:48:24;;;;;;;0.70;0.40;;;12.20;1.00;;;;;;4956672;29;20447;-73
2023/05/19 06:50:52;;;;;;;1.27;0.40;;;12.30;1.00;;;;;;4955761;29;20575;-73
2023/05/19 06:53:21;;;;;;;2.40;0.77;;;;;;;;;;4955952;28;20460;-72
2023/05/19 06:55:49;;;;;;;0.60;0.10;;;12.30;1.00;;;;;;4955992;28;20445;-74
2023/05/19 06:58:28;;;;;;;0.60;0.10;;;12.30;1.00;;;;;;4952510;29;20455;-73
2023/05/19 07:00:56;;;;;;;0.80;0.20;;;12.40;1.00;;;;;;4955547;28;20453;-74
2023/05/19 07:03:26;;;;;;;0.70;0.40;;;;;;;;;;4955635;28;20448;-74
2023/05/19 07:05:56;;;;;;;0.60;0.10;;;12.50;1.00;;;;;;4956107;28;20550;-73
2023/05/19 07:08:28;;;;;;;0.60;0.10;;;12.60;1.00;;;;;;4950698;28;20493;-74
2023/05/19 07:10:56;;;;;;;0.80;0.27;;;12.60;1.00;;;;;;4951937;28;20486;-73
2023/05/19 07:13:24;;;;;;;0.93;0.40;;;12.80;1.00;;;;;;4955445;29;20547;-73
2023/05/19 07:15:54;;;;;;;0.60;0.10;;;12.90;1.00;;;;;;4956081;29;20447;-73
2023/05/19 07:18:25;;;;;;;0.80;0.73;;;13.00;1.00;;;;;;4955938;29;20555;-75
2023/05/19 07:20:54;;;;;;;1.33;0.27;;;;;;;;;;4955800;28;20457;-74
2023/05/19 07:23:24;;;;;;;1.20;0.90;;;;;;;;;;4955203;29;20938;-74
2023/05/19 07:25:55;;;;;;;0.60;0.10;;;13.30;1.00;;;;;;4955771;29;20541;-73
2023/05/19 07:28:23;;;;;;;0.60;0.10;;;13.30;1.00;;;;;;4955357;28;20454;-73
2023/05/19 07:30:53;;;;;;;0.70;0.20;;;13.40;1.00;;;;;;4955289;28;20474;-74
2023/05/19 07:33:26;;;;;;;0.60;0.10;;;13.50;1.00;;;;;;4954395;28;20461;-74
2023/05/19 07:35:54;;;;;;;0.60;0.10;;;16.70;1.00;;;;;;4954426;29;20468;-74
2023/05/19 07:38:22;;;;;;;0.60;0.10;;;13.60;1.00;;;;;;4955003;29;21025;-74
2023/05/19 07:40:49;;;;;;;0.97;0.23;;;13.70;1.00;;;;;;4949304;28;20479;-71
2023/05/19 07:43:18;;;;;;;0.60;0.10;;;13.80;1.00;;;;;;4946019;29;21240;-72
2023/05/19 07:45:46;;;;;;;0.60;0.10;;;13.90;1.00;;;;;;4946084;29;20499;-74
2023/05/19 07:48:17;;;;;;;0.60;0.10;;;14.00;1.00;;;;;;4947458;29;20449;-73
2023/05/19 07:50:47;;;;;;;0.80;0.30;;;14.20;1.00;;;;;;4950200;29;20442;-74
2023/05/19 07:53:17;;;;;;;0.60;0.20;;;14.10;1.00;;;;;;4947609;28;20447;-74
2023/05/19 07:55:49;;;;;;;0.60;0.20;;;;;;;;;;4951686;28;20443;-74
2023/05/19 07:58:18;;;;;;;0.70;0.23;;;;;;;;;;4950010;28;20451;-74
2023/05/19 08:00:46;;;;;;;0.60;0.10;;;14.30;1.00;;;;;;4942269;28;20479;-75
2023/05/19 08:03:16;;;;;;;0.60;0.10;;;14.40;1.00;;;;;;4953503;28;20448;-75
2023/05/19 08:05:46;;;;;;;0.80;0.23;;;14.40;1.00;;;;;;4948449;28;20982;-76
2023/05/19 08:08:15;;;;;;;0.60;0.10;;;14.40;1.00;;;;;;4949144;29;20447;-75
2023/05/19 08:10:43;;;;;;;0.80;0.17;;;14.50;1.00;;;;;;4952103;28;20509;-75
2023/05/19 08:13:11;;;;;;;0.60;0.17;;;14.50;1.00;;;;;;4955922;28;20470;-73
2023/05/19 08:15:39;;;;;;;0.63;0.33;;;;;;;;;;4954617;28;20544;-75
2023/05/19 08:18:08;;;;;;;0.60;0.10;;;14.40;1.00;;;;;;4948564;29;20455;-75
2023/05/19 08:20:36;;;;;;;0.60;0.20;;;14.60;1.00;;;;;;4951767;28;20478;-73
2023/05/19 08:23:05;;;;;;;0.60;0.20;;;14.70;1.00;;;;;;4953169;28;20479;-74
2023/05/19 08:25:33;;;;;;;0.60;0.10;;;14.80;1.00;;;;;;4955286;28;20447;-74
2023/05/19 08:28:01;;;;;;;0.60;0.10;;;;;;;;;;4951465;29;20486;-74
2023/05/19 08:30:29;;;;;;;0.60;0.20;;;15.00;1.00;;;;;;4948608;28;20535;-74
2023/05/19 08:32:57;;;;;;;0.60;0.10;;;15.20;1.00;;;;;;4935572;29;20484;-76
2023/05/19 08:35:25;;;;;;;0.60;0.10;;;15.20;1.00;;;;;;4935862;29;20976;-73
2023/05/19 08:37:53;;;;;;;0.60;0.10;;;15.30;1.00;;;;;;4944343;29;20927;-73
2023/05/19 08:40:23;;;;;;;0.60;0.10;;;15.30;1.00;;;;;;4953259;29;20484;-74
2023/05/19 08:42:51;;;;;;;0.60;0.10;;;15.40;1.00;;;;;;4953708;28;20482;-74
2023/05/19 08:45:19;;;;;;;0.60;0.17;;;15.50;1.00;;;;;;4955250;29;20443;-74
2023/05/19 08:47:47;;;;;;;0.60;0.10;;;;;;;;;;4951232;28;20523;-74
2023/05/19 08:50:20;;;;;;;0.70;0.20;;;15.60;1.00;;;;;;4950834;29;20444;-74
2023/05/19 08:52:52;;;;;;;0.60;0.20;;;15.60;1.00;;;;;;4951796;28;21093;-74
2023/05/19 08:55:36;;;;;;;0.60;0.10;;;15.70;1.00;;;;;;4949006;29;21213;-73
2023/05/19 08:58:05;;;;;;;0.70;0.37;;;15.80;1.00;;;;;;4953549;28;20995;-74
2023/05/19 09:00:33;;;;;;;0.60;0.17;;;16.00;1.00;;;;;;4951619;28;20517;-74
2023/05/19 09:03:02;;;;;;;0.60;0.10;;;15.90;1.00;;;;;;4937360;29;20645;-74
2023/05/19 09:05:45;;;;;;;2.20;0.30;;;16.00;1.00;;;;;;4954931;29;20461;-73
2023/05/19 09:08:13;;;;;;;4.30;1.57;;;16.00;1.00;;;;;;4955501;28;20446;-73
2023/05/19 09:10:42;;;;;;;0.60;0.30;;;16.00;1.00;;;;;;4948978;28;20475;-74
2023/05/19 09:13:10;;;;;;;0.60;0.27;;;16.10;1.00;;;;;;4935817;29;20539;-73
2023/05/19 09:15:40;;;;;;;0.60;0.20;;;16.20;1.00;;;;;;4939851;29;20508;-75
2023/05/19 09:18:09;;;;;;;0.60;0.30;;;16.20;1.00;;;;;;4955468;28;20454;-74
2023/05/19 09:20:39;;;;;;;0.60;0.10;;;16.20;1.00;;;;;;4948905;28;20492;-73
2023/05/19 09:23:07;;;;;;;0.60;0.20;;;16.20;1.00;;;;;;4940527;29;20525;-72
2023/05/19 09:25:35;;;;;;;1.70;1.60;;;16.40;1.00;;;;;;4952945;29;20528;-73
2023/05/19 09:28:05;;;;;;;0.60;0.20;;;16.50;1.00;;;;;;4954617;29;20443;-72
2023/05/19 09:30:33;;;;;;;0.77;0.47;;;16.40;1.00;;;;;;4944076;29;20443;-73
2023/05/19 09:33:03;;;;;;;0.70;0.40;;;16.40;1.00;;;;;;4949439;29;20483;-75
2023/05/19 09:35:31;;;;;;;0.60;0.10;;;16.50;1.00;;;;;;4952751;29;20461;-73
2023/05/19 09:38:01;;;;;;;0.60;0.20;;;16.50;1.00;;;;;;4941866;29;20922;-74
2023/05/19 09:40:29;;;;;;;0.60;0.10;;;16.60;1.00;;;;;;4949220;28;21007;-74
2023/05/19 09:42:57;;;;;;;0.60;0.10;;;16.70;1.00;;;;;;4941639;28;20471;-74
2023/05/19 09:45:28;;;;;;;0.60;0.10;;;16.80;1.00;;;;;;4951841;29;20956;-74
2023/05/19 09:47:56;;;;;;;0.60;0.20;;;;;;;;;;4952607;29;20458;-73
2023/05/19 09:50:28;;;;;;;0.70;0.40;;;16.90;1.00;;;;;;4944813;29;20488;-72
2023/05/19 09:52:57;;;;;;;0.60;0.10;;;17.00;1.00;;;;;;4952443;28;20846;-73
2023/05/19 09:55:28;;;;;;;0.60;0.10;;;17.10;1.00;;;;;;4943591;28;20959;-73
2023/05/19 09:57:56;;;;;;;0.60;0.10;;;17.20;1.00;;;;;;4951283;29;20474;-73
2023/05/19 10:00:26;;;;;;;0.73;0.30;;;17.30;1.00;;;;;;4952116;29;20493;-73
2023/05/19 10:02:59;;;;;;;1.57;0.73;;;17.30;1.00;;;;;;4951666;28;20877;-74
2023/05/19 10:05:28;;;;;;;0.60;0.10;;;;;;;;;;4957700;28;20962;-73
2023/05/19 10:07:56;;;;;;;0.60;0.17;;;;;;;;;;4952448;28;20454;-73
2023/05/19 10:10:25;;;;;;;1.53;0.47;;;;;;;;;;4955051;29;20549;-74
2023/05/19 10:12:54;;;;;;;0.60;0.10;;;17.80;1.00;;;;;;4953998;29;20529;-74
2023/05/19 10:15:23;;;;;;;0.60;0.20;;;17.70;1.00;;;;;;4949607;29;20492;-76
2023/05/19 10:17:52;;;;;;;0.80;0.30;;;17.70;1.00;;;;;;4956300;28;20501;-74
2023/05/19 10:20:20;;;;;;;0.60;0.27;;;17.70;1.00;;;;;;4951249;28;20453;-75
2023/05/19 10:22:48;;;;;;;0.60;0.20;;;17.70;1.00;;;;;;4952779;28;20521;-74
2023/05/19 10:25:18;;;;;;;0.60;0.10;;;17.80;1.00;;;;;;4952992;29;20490;-73
2023/05/19 10:27:52;;;;;;;0.60;0.10;;;17.90;1.00;;;;;;4947199;28;20939;-70
2023/05/19 10:30:26;;;;;;;1.23;0.53;;;18.00;1.00;;;;;;4956703;28;20470;-72
2023/05/19 10:33:01;;;;;;;1.77;0.90;;;18.00;1.00;;;;;;4955232;28;20576;-73
2023/05/19 10:36:07;;;;;;;0.60;0.10;;;18.00;1.00;;;;;;4974910;23;20490;-74
2023/05/19 10:38:43;;;;;;;0.60;0.10;;;18.10;1.00;;;;;;4937858;29;20467;-76
2023/05/19 10:41:16;;;;;;;0.60;0.33;;;18.20;1.00;;;;;;4956638;29;20535;-75
2023/05/19 10:43:52;;;;;;;0.90;0.50;;;18.40;1.00;;;;;;4954913;29;20468;-74
2023/05/19 10:46:24;;;;;;;0.60;0.20;;;18.40;1.00;;;;;;4939038;29;20546;-76
2023/05/19 10:48:54;;;;;;;0.60;0.10;;;18.50;1.00;;;;;;4938682;29;20443;-75
2023/05/19 10:51:30;;;;;;;0.60;0.10;;;18.50;1.00;;;;;;4938682;29;20450;-75
2023/05/19 10:53:58;;;;;;;0.60;0.10;;;18.50;1.00;;;;;;4941495;29;20457;-74
2023/05/19 10:56:32;;;;;;;0.60;0.10;;;18.50;1.00;;;;;;4943428;29;20455;-76
2023/05/19 10:59:01;;;;;;;0.60;0.10;;;18.40;1.00;;;;;;4943831;29;20449;-76
2023/05/19 11:01:33;;;;;;;0.60;0.30;;;18.40;1.00;;;;;;4939943;29;20515;-75
2023/05/19 11:04:07;;;;;;;0.70;0.30;;;18.30;1.00;;;;;;4940040;29;20487;-77
2023/05/19 11:06:36;;;;;;;0.60;0.20;;;18.20;1.00;;;;;;4933958;29;20527;-76
2023/05/19 11:09:12;;;;;;;0.60;0.20;;;18.10;1.00;;;;;;4938022;29;20482;-75
2023/05/19 11:11:46;;;;;;;0.60;0.10;;;18.10;1.00;;;;;;4926193;29;20509;-76
2023/05/19 11:14:15;;;;;;;0.90;0.20;;;18.20;1.00;;;;;;4932648;29;20466;-76
2023/05/19 11:16:47;;;;;;;0.60;0.30;;;18.30;1.00;;;;;;4939402;29;20513;-76
2023/05/19 11:19:25;;;;;;;0.60;0.10;;;18.30;1.00;;;;;;4931601;29;20530;-76
2023/05/19 11:21:54;;;;;;;0.70;0.50;;;18.40;1.00;;;;;;4938417;29;20600;-74
2023/05/19 11:24:36;;;;;;;0.60;0.20;;;;;;;;;;4937860;29;20973;-76
2023/05/19 11:27:21;;;;;;;0.60;0.10;;;18.60;1.00;;;;;;4936957;29;20510;-76
2023/05/19 11:29:50;;;;;;;0.60;0.20;;;18.70;1.00;;;;;;4935361;29;20829;-76
2023/05/19 11:32:19;;;;;;;1.00;0.63;;;18.70;1.00;;;;;;4937491;29;20508;-75
2023/05/19 11:34:49;;;;;;;0.93;0.83;;;18.70;1.00;;;;;;4937099;29;20479;-74
2023/05/19 11:37:17;;;;;;;1.60;0.30;;;18.80;1.00;;;;;;4935976;29;20467;-74
2023/05/19 11:39:46;;;;;;;0.60;0.10;;;18.70;1.00;;;;;;4937518;29;20863;-70
2023/05/19 11:42:14;;;;;;;1.07;0.30;;;18.80;1.00;;;;;;4935754;29;20578;-74
2023/05/19 11:44:44;;;;;;;0.60;0.10;;;18.80;1.00;;;;;;4935866;29;20866;-73
2023/05/19 11:47:13;;;;;;;0.60;0.10;;;19.00;1.00;;;;;;4936252;29;20857;-76
2023/05/19 11:49:43;;;;;;;1.03;0.40;;;19.20;1.00;;;;;;4935523;29;20976;-76
2023/05/19 11:52:13;;;;;;;0.60;0.20;;;19.30;1.00;;;;;;4935868;29;20506;-74
2023/05/19 11:54:41;;;;;;;0.97;0.30;;;19.40;1.00;;;;;;4936337;29;20467;-74
2023/05/19 11:57:10;;;;;;;0.60;0.10;;;19.40;1.00;;;;;;4936166;29;21055;-75
2023/05/19 11:59:42;;;;;;;0.60;0.30;;;19.50;1.00;;;;;;4936025;29;20483;-75
2023/05/19 12:02:17;;;;;;;1.13;0.77;;;19.40;1.00;;;;;;4936268;29;20503;-74
2023/05/19 12:04:46;;;;;;;0.60;0.30;;;19.20;1.00;;;;;;4936647;29;20478;-75
2023/05/19 12:07:17;;;;;;;0.60;0.20;;;19.30;1.00;;;;;;4936508;29;20456;-75
2023/05/19 12:09:46;;;;;;;0.60;0.10;;;19.40;1.00;;;;;;4935362;29;20507;-70
2023/05/19 12:12:15;;;;;;;0.60;0.10;;;19.40;1.00;;;;;;4929638;29;20463;-76
2023/05/19 12:14:44;;;;;;;0.60;0.30;;;19.40;1.00;;;;;;4935823;29;20504;-75
2023/05/19 12:17:13;;;;;;;1.33;0.43;;;19.40;1.00;;;;;;4938390;29;20558;-75
2023/05/19 12:19:42;;;;;;;0.60;0.30;;;19.40;1.00;;;;;;4940106;29;20464;-74
2023/05/19 12:22:11;;;;;;;0.60;0.10;;;;;;;;;;4939039;29;20487;-74
2023/05/19 12:24:42;;;;;;;0.60;0.10;;;19.70;1.00;;;;;;4939021;29;20475;-76
2023/05/19 12:27:12;;;;;;;0.80;0.27;;;19.90;1.00;;;;;;4933375;29;20468;-74
2023/05/19 12:29:40;;;;;;;1.47;0.30;;;20.00;1.00;;;;;;4937338;29;20458;-75
2023/05/19 12:32:12;;;;;;;0.60;0.20;;;20.10;1.00;;;;;;4942961;29;20491;-73
2023/05/19 12:34:41;;;;;;;0.80;0.57;;;19.90;1.00;;;;;;4941070;29;20480;-74
2023/05/19 12:37:11;;;;;;;0.60;0.10;;;19.90;1.00;;;;;;4938129;29;20451;-72
2023/05/19 12:39:41;;;;;;;0.60;0.20;;;19.90;1.00;;;;;;4921280;29;21010;-75
2023/05/19 12:42:12;;;;;;;0.60;0.10;;;19.70;1.00;;;;;;4924171;29;20898;-73
2023/05/19 12:44:46;;;;;;;0.60;0.17;;;19.90;1.00;;;;;;4923909;29;20495;-75
2023/05/19 12:47:15;;;;;;;0.60;0.10;;;19.90;1.00;;;;;;4935212;29;20526;-77
2023/05/19 12:49:57;;;;;;;0.60;0.10;;;20.00;1.00;;;;;;4935821;29;20466;-76
2023/05/19 12:52:26;;;;;;;0.90;0.40;;;20.10;1.00;;;;;;4920876;29;20470;-75
2023/05/19 12:55:00;;;;;;;0.60;0.20;;;20.00;1.00;;;;;;4934877;29;20542;-75
2023/05/19 12:57:30;;;;;;;0.60;0.20;;;20.10;1.00;;;;;;4935364;29;20527;-76
2023/05/19 13:00:03;;;;;;;0.60;0.10;;;20.10;1.00;;;;;;4935030;29;20970;-71
2023/05/19 13:02:33;;;;;;;0.60;0.10;;;20.20;1.00;;;;;;4928573;29;20847;-70
2023/05/19 13:05:01;;;;;;;0.60;0.20;;;20.20;1.00;;;;;;4918622;29;20475;-76
2023/05/19 13:07:29;;;;;;;0.80;0.57;;;20.30;1.00;;;;;;4930714;29;20522;-67
2023/05/19 13:09:58;;;;;;;0.87;0.40;;;20.30;1.00;;;;;;4934167;29;20795;-70
2023/05/19 13:12:26;;;;;;;1.10;0.20;;;20.50;1.00;;;;;;4930821;29;20996;-70
2023/05/19 13:14:54;;;;;;;0.60;0.13;;;20.60;1.00;;;;;;4934348;29;20287;-70
2023/05/19 13:17:22;;;;;;;0.60;0.20;;;20.60;1.00;;;;;;4933086;29;20451;-70
2023/05/19 13:19:51;;;;;;;1.70;0.83;;;20.70;1.00;;;;;;4931380;29;20507;-72
2023/05/19 13:22:19;;;;;;;0.60;0.10;;;20.50;1.00;;;;;;4930091;29;20449;-74
2023/05/19 13:24:47;;;;;;;2.03;1.00;;;20.60;1.00;;;;;;4927016;29;20811;-70
2023/05/19 13:27:16;;;;;;;0.67;0.47;;;20.70;1.00;;;;;;4928348;29;20484;-72
2023/05/19 13:29:44;;;;;;;1.33;0.63;;;20.60;1.00;;;;;;4934500;29;20525;-71
2023/05/19 13:32:12;;;;;;;3.43;1.33;;;20.50;1.00;;;;;;4933826;29;20991;-71
2023/05/19 13:34:40;;;;;;;0.60;0.20;;;20.30;1.00;;;;;;4934674;29;20508;-73
2023/05/19 13:37:08;;;;;;;0.60;0.20;;;20.30;1.00;;;;;;4934322;29;21023;-73
2023/05/19 13:39:37;;;;;;;0.60;0.27;;;20.30;1.00;;;;;;4937798;29;20483;-73
2023/05/19 13:42:05;;;;;;;0.60;0.20;;;20.50;1.00;;;;;;4930163;29;20890;-72
2023/05/19 13:44:35;;;;;;;0.80;0.30;;;20.70;1.00;;;;;;4936572;29;20483;-72
2023/05/19 13:47:03;;;;;;;0.70;0.30;;;20.70;1.00;;;;;;4938108;29;20462;-73
2023/05/19 13:49:31;;;;;;;0.60;0.20;;;20.70;1.00;;;;;;4938096;29;20456;-74
2023/05/19 13:51:58;;;;;;;0.60;0.10;;;20.80;1.00;;;;;;4935894;29;20448;-75
2023/05/19 13:54:27;;;;;;;0.60;0.10;;;20.80;1.00;;;;;;4923625;29;20558;-73
2023/05/19 13:56:55;;;;;;;0.70;0.20;;;21.00;1.00;;;;;;4928779;29;20441;-73
2023/05/19 13:59:23;;;;;;;0.60;0.10;;;21.00;1.00;;;;;;4931062;29;20448;-72
2023/05/19 14:01:52;;;;;;;0.60;0.30;;;21.10;1.00;;;;;;4926937;29;20457;-73
2023/05/19 14:04:22;;;;;;;0.60;0.10;;;;;;;;;;4933237;29;20487;-71
2023/05/19 14:06:50;;;;;;;0.60;0.20;;;21.00;1.00;;;;;;4934389;29;20544;-70
2023/05/19 14:09:18;;;;;;;0.60;0.20;;;20.90;1.00;;;;;;4937732;29;20512;-72
2023/05/19 14:11:47;;;;;;;0.60;0.10;;;20.70;1.00;;;;;;4933386;29;20447;-71
2023/05/19 14:14:14;;;;;;;0.60;0.20;;;20.80;1.00;;;;;;4937948;29;20562;-72
2023/05/19 14:16:42;;;;;;;0.60;0.10;;;20.90;1.00;;;;;;4936392;29;20852;-71
2023/05/19 14:19:13;;;;;;;0.70;0.30;;;;;;;;;;4936997;29;20479;-69
2023/05/19 14:21:41;;;;;;;0.70;0.20;;;21.00;1.00;;;;;;4937244;29;20963;-71
2023/05/19 14:24:11;;;;;;;0.70;0.20;;;20.90;1.00;;;;;;4936888;29;20495;-71
2023/05/19 14:26:39;;;;;;;0.60;0.10;;;20.80;1.00;;;;;;4937404;29;20841;-71
2023/05/19 14:29:07;;;;;;;1.20;1.10;;;20.80;1.00;;;;;;4938810;29;20460;-78
2023/05/19 14:31:35;;;;;;;0.90;0.47;;;20.90;1.00;;;;;;4928371;29;20453;-78
2023/05/19 14:34:03;;;;;;;0.60;0.10;;;20.60;1.00;;;;;;4938964;29;20456;-76
2023/05/19 14:36:33;;;;;;;1.17;0.30;;;20.50;1.00;;;;;;4944643;29;20447;-79
2023/05/19 14:39:01;;;;;;;0.70;0.50;;;20.50;1.00;;;;;;4948457;29;20490;-77
2023/05/19 14:41:30;;;;;;;0.60;0.10;;;;;;;;;;4944987;29;20477;-77
2023/05/19 14:43:58;;;;;;;2.03;1.80;;;;;;;;;;4938041;29;20479;-77
2023/05/19 14:46:26;;;;;;;0.60;0.20;;;;;;;;;;4929735;29;20519;-78
2023/05/19 14:48:54;;;;;;;0.60;0.20;;;20.60;1.00;;;;;;4931009;29;20852;-77
2023/05/19 14:51:22;;;;;;;0.60;0.20;;;20.50;1.00;;;;;;4937629;29;20567;-78
2023/05/19 14:53:52;;;;;;;1.00;0.47;;;20.40;1.00;;;;;;4928765;29;20524;-76
2023/05/19 14:56:20;;;;;;;0.60;0.10;;;20.30;1.00;;;;;;4930241;29;21005;-77
2023/05/19 14:58:48;;;;;;;0.60;0.20;;;20.30;1.00;;;;;;4931205;29;20456;-77
2023/05/19 15:01:16;;;;;;;0.60;0.10;;;20.40;1.00;;;;;;4931480;29;20940;-76
2023/05/19 15:03:44;;;;;;;0.80;0.40;;;20.40;1.00;;;;;;4931231;29;20485;-77
2023/05/19 15:06:12;;;;;;;2.50;2.30;;;20.40;1.00;;;;;;4938435;29;20471;-77
2023/05/19 15:08:40;;;;;;;4.10;3.80;;;20.40;1.00;;;;;;4940576;29;20490;-77
2023/05/19 15:11:14;;;;;;;0.60;0.10;;;20.40;1.00;;;;;;4929307;29;20945;-78
2023/05/19 15:13:42;;;;;;;0.60;0.20;;;20.50;1.00;;;;;;4942472;29;20428;-77
2023/05/19 15:16:10;;;;;;;0.60;0.10;;;20.60;1.00;;;;;;4939805;29;20892;-77
2023/05/19 15:18:41;;;;;;;0.90;0.70;;;20.60;1.00;;;;;;4920855;29;20453;-77
2023/05/19 15:21:09;;;;;;;0.60;0.20;;;20.60;1.00;;;;;;4932677;29;20492;-73
2023/05/19 15:23:37;;;;;;;2.20;1.23;;;20.30;1.00;;;;;;4932636;29;20487;-71
2023/05/19 15:26:05;;;;;;;0.80;0.67;;;20.30;1.00;;;;;;4933892;29;20502;-69
2023/05/19 15:28:34;;;;;;;0.60;0.20;;;20.20;1.00;;;;;;4935261;29;20447;-70
2023/05/19 15:31:02;;;;;;;0.60;0.10;;;20.20;1.00;;;;;;4935902;29;20456;-73
2023/05/19 15:33:30;;;;;;;0.60;0.10;;;20.10;1.00;;;;;;4939653;29;20546;-73
2023/05/19 15:35:58;;;;;;;0.60;0.10;;;20.10;1.00;;;;;;4939336;29;20992;-71
2023/05/19 15:38:26;;;;;;;0.87;0.47;;;20.10;1.00;;;;;;4939147;29;21161;-72
2023/05/19 15:40:57;;;;;;;0.70;0.53;;;20.10;1.00;;;;;;4939286;29;20448;-71
2023/05/19 15:43:25;;;;;;;0.60;0.20;;;20.10;1.00;;;;;;4937924;29;20444;-71
2023/05/19 15:45:54;;;;;;;0.60;0.20;;;20.10;1.00;;;;;;4936348;29;20471;-72
2023/05/19 15:48:23;;;;;;;0.60;0.10;;;20.00;1.00;;;;;;4937113;29;20499;-71
2023/05/19 15:50:51;;;;;;;0.60;0.20;;;20.10;1.00;;;;;;4937462;29;20508;-71
2023/05/19 15:53:19;;;;;;;1.00;0.40;;;20.20;1.00;;;;;;4935017;29;20491;-70
2023/05/19 15:55:47;;;;;;;2.03;0.73;;;20.30;1.00;;;;;;4936557;29;20474;-71
2023/05/19 15:58:15;;;;;;;0.60;0.17;;;20.40;1.00;;;;;;4937643;29;20455;-71
2023/05/19 16:00:43;;;;;;;0.60;0.20;;;20.50;1.00;;;;;;4936558;29;20451;-71
2023/05/19 16:03:12;;;;;;;0.70;0.30;;;20.50;1.00;;;;;;4937216;29;20479;-70
2023/05/19 16:05:41;;;;;;;0.60;0.20;;;20.70;1.00;;;;;;4936710;29;20864;-72
2023/05/19 16:08:08;;;;;;;0.60;0.20;;;20.70;1.00;;;;;;4940962;29;20458;-70
2023/05/19 16:10:36;;;;;;;8.80;0.33;;;20.70;1.00;;;;;;4937823;29;20440;-72
2023/05/19 16:13:04;;;;;;;1.10;0.87;;;20.60;1.00;;;;;;4937795;29;20452;-71
2023/05/19 16:15:32;;;;;;;0.60;0.20;;;20.70;1.00;;;;;;4936358;29;20508;-71
2023/05/19 16:18:00;;;;;;;0.60;0.20;;;20.60;1.00;;;;;;4935654;29;20859;-70
2023/05/19 16:20:30;;;;;;;1.00;0.87;;;20.70;1.00;;;;;;4935828;29;20460;-70
2023/05/19 16:22:58;;;;;;;0.60;0.10;;;20.70;1.00;;;;;;4935020;29;20523;-71
2023/05/19 16:25:26;;;;;;;0.70;0.50;;;20.90;1.00;;;;;;4935306;29;20496;-71
2023/05/19 16:27:55;;;;;;;0.60;0.20;;;21.00;1.00;;;;;;4934460;29;20465;-72
2023/05/19 16:30:25;;;;;;;0.60;0.27;;;20.90;1.00;;;;;;4934711;29;20661;-70
2023/05/19 16:32:53;;;;;;;0.70;0.30;;;;;;;;;;4934371;29;20950;-72
2023/05/19 16:35:21;;;;;;;1.00;0.20;;;21.00;1.00;;;;;;4975262;23;20498;-70
2023/05/19 16:37:50;;;;;;;0.60;0.20;;;21.00;1.00;;;;;;4978603;28;20453;-69
2023/05/19 16:40:18;;;;;;;0.60;0.20;;;21.00;1.00;;;;;;4977809;28;20544;-69
2023/05/19 16:42:46;;;;;;;1.50;1.40;;;21.10;1.00;;;;;;4977057;28;20474;-70
2023/05/19 16:45:16;;;;;;;1.87;0.77;;;21.20;1.00;;;;;;4976360;28;20468;-70
2023/05/19 16:47:44;;;;;;;0.90;0.60;;;21.30;1.00;;;;;;4976645;28;20509;-68
2023/05/19 16:50:12;;;;;;;0.60;0.20;;;21.30;1.00;;;;;;4975525;28;20442;-70
2023/05/19 16:52:40;;;;;;;0.87;0.67;;;21.40;1.00;;;;;;4975640;28;20430;-68
2023/05/19 16:55:10;;;;;;;0.90;0.50;;;21.70;1.00;;;;;;4972495;28;20545;-71
2023/05/19 16:57:38;;;;;;;0.60;0.10;;;21.80;1.00;;;;;;4974820;28;20515;-70
2023/05/19 17:00:08;;;;;;;0.60;0.20;;;21.90;1.00;;;;;;4971099;28;20491;-68
2023/05/19 17:02:35;;;;;;;1.50;1.40;;;22.00;1.00;;;;;;4981049;28;20502;-70
2023/05/19 17:05:04;;;;;;;0.80;0.40;;;22.40;1.00;;;;;;4973744;28;20559;-68
2023/05/19 17:07:32;;;;;;;0.63;0.20;;;22.50;1.00;;;;;;4958576;28;20454;-69
2023/05/19 17:10:00;;;;;;;2.00;0.40;;;22.40;1.00;;;;;;4978118;28;20503;-69
2023/05/19 17:12:29;;;;;;;0.80;0.40;;;20.40;1.00;;;;;;4981789;28;20473;-68
2023/05/19 17:14:57;;;;;;;0.80;0.60;;;21.80;1.00;;;;;;4987836;28;20488;-68
2023/05/19 17:17:25;;;;;;;1.33;1.23;;;21.80;1.00;;;;;;4997047;28;20471;-70
2023/05/19 17:19:53;;;;;;;0.60;0.10;;;;;;;;;;4980142;28;20450;-69